Terminal Aerodrome Forecast
Issued by NWS

Home | Current Version | Previous Version | Text Only | Print | Product List | Glossary On
Versions: 1 2 3 4 5 6 7 8 9 10 11 12 13 14 15 16 17
233
FTUS45 KRIW 281125
TAFJAC
TAF
KJAC 281125Z 2812/2912 36007KT P6SM SCT040 BKN050
     FM281800 35011KT P6SM SCT050
     FM290100 01006KT P6SM SCT200
      AMD LTD TO CLD VIS AND WIND=

USA.gov is the U.S. government's official web portal to all federal, state and local government web resources and services.